Ana Sayfa
METAR-TAF:

METAR-TAF

Havaalanları :

Hazleton, Pensilvanya, Amerika Birleşik Devletleri

Enlem: 40-59-12N, Boylam: 075-59-42W, yükseklik: 489 m

Güncel hava durumu gözlemi

Rapor saat 11:35 UTC de 11 dakika önce yapıldı.
Rüzgar kuzeydan 3 kt
Sıcaklık 15°C
Nem 72%
Basınç 1018 hPa
Görüş mesafesi: 16.1 km
4100 ft yükseklikte parçalı çok bulutlu

METAR: KHZL 271135Z AUTO 36003KT 10SM BKN041 15/10 A3006 RMK AO2

Saat: 07:46 (11:46 UTC)


TAF: eksik

4.000'den fazla havaalanı için hava durumu gözlemleri ve tahminleri (METAR ve TAF raporları).

Kullanılabilir istasyonlar harita üzerinde sarı ve kırmızı noktalarla gösterilir.

İstasyonun adını görmek için fareyi noktanın üzerinde gezdirin.

Sonrasında hava gözlem ve tahminlerini görmek için tıklayın.

Haritayı değiştirmek için: yaklaştırmak için siyah artı işaretli yeşil düğmeye ve uzaklaştırmak için de eksi işaretli düğmeye hızla tıklayın; bitişik haritalar için yeşil okları kullanın.


METAR-TAF: